createdAt,value
2019-02-25T00:00:42.227Z,3.20
2019-02-25T00:03:14.220Z,3.20
2019-02-25T00:05:44.552Z,3.20
2019-02-25T00:08:14.905Z,3.20
2019-02-25T00:10:45.248Z,3.20
2019-02-25T00:13:16.257Z,3.10
2019-02-25T00:15:46.749Z,3.20
2019-02-25T00:18:17.091Z,3.10
2019-02-25T00:20:47.419Z,3.20
2019-02-25T00:23:17.814Z,3.20
2019-02-25T00:25:48.172Z,3.20
2019-02-25T00:28:18.494Z,3.10
2019-02-25T00:30:48.893Z,3.10
2019-02-25T00:33:19.199Z,3.10
2019-02-25T00:35:49.671Z,3.10
2019-02-25T00:38:20.021Z,3.00
2019-02-25T00:40:50.382Z,3.00
2019-02-25T00:43:21.142Z,3.00
2019-02-25T00:45:51.514Z,3.00
2019-02-25T00:48:21.903Z,2.90
2019-02-25T00:50:52.222Z,2.90
2019-02-25T00:53:22.605Z,3.00
2019-02-25T00:55:52.924Z,3.00
2019-02-25T00:58:23.611Z,3.00
2019-02-25T01:00:54.264Z,3.00
2019-02-25T01:03:24.581Z,3.00
2019-02-25T01:05:54.901Z,3.00
2019-02-25T01:08:25.359Z,3.00
2019-02-25T01:10:55.715Z,2.90
2019-02-25T01:13:26.104Z,2.90
2019-02-25T01:15:57.537Z,2.90
2019-02-25T01:18:28.020Z,2.90
2019-02-25T01:20:58.378Z,2.90
2019-02-25T01:23:28.822Z,2.80
2019-02-25T01:25:59.153Z,2.80
2019-02-25T01:28:29.507Z,2.70
2019-02-25T01:30:59.837Z,2.70
2019-02-25T01:33:30.127Z,2.70
2019-02-25T01:36:00.811Z,2.80
2019-02-25T01:38:31.127Z,2.80
2019-02-25T01:41:01.479Z,2.80
2019-02-25T01:43:32.681Z,2.90
2019-02-25T01:46:03.269Z,2.80
2019-02-25T01:48:33.627Z,2.80
2019-02-25T01:51:04.005Z,2.90
2019-02-25T01:53:34.309Z,2.90
2019-02-25T01:56:04.653Z,2.90
2019-02-25T01:58:34.977Z,2.90
2019-02-25T02:01:05.417Z,2.90
2019-02-25T02:03:36.064Z,2.90
2019-02-25T02:06:06.434Z,2.90
2019-02-25T02:08:36.748Z,2.90
2019-02-25T02:11:07.074Z,2.90
2019-02-25T02:13:38.195Z,2.90
2019-02-25T02:16:08.571Z,2.90
2019-02-25T02:18:38.871Z,2.90
2019-02-25T02:21:10.533Z,2.90
2019-02-25T02:23:40.909Z,2.80
2019-02-25T02:26:11.207Z,2.80
2019-02-25T02:28:41.549Z,2.80
2019-02-25T02:31:11.905Z,2.80
2019-02-25T02:33:42.245Z,2.80
2019-02-25T02:36:12.606Z,2.80
2019-02-25T02:38:42.972Z,2.80
2019-02-25T02:41:13.321Z,2.80
2019-02-25T02:43:45.293Z,2.80
2019-02-25T02:46:31.786Z,2.70
2019-02-25T02:49:04.142Z,2.70
2019-02-25T02:51:34.536Z,2.80
2019-02-25T02:54:04.870Z,2.80
2019-02-25T02:56:35.232Z,2.70
2019-02-25T02:59:05.627Z,2.70
2019-02-25T03:01:35.958Z,2.70
2019-02-25T03:04:06.272Z,2.70
2019-02-25T03:06:36.605Z,2.70
2019-02-25T03:09:10.522Z,2.70
2019-02-25T03:11:40.933Z,2.60
2019-02-25T03:14:11.257Z,2.60
2019-02-25T03:16:41.594Z,2.60
2019-02-25T03:19:11.917Z,2.50
2019-02-25T03:21:42.249Z,2.60
2019-02-25T03:24:12.613Z,2.60
2019-02-25T03:26:42.940Z,2.50
2019-02-25T03:29:13.279Z,2.50
2019-02-25T03:31:43.608Z,2.50
2019-02-25T03:34:13.927Z,2.50
2019-02-25T03:36:44.257Z,2.50
2019-02-25T03:39:14.626Z,2.50
2019-02-25T03:41:44.947Z,2.50
2019-02-25T03:44:15.539Z,2.50
2019-02-25T03:46:45.881Z,2.50
2019-02-25T03:49:16.163Z,2.60
2019-02-25T03:51:46.517Z,2.50
2019-02-25T03:54:17.220Z,2.50
2019-02-25T03:56:47.568Z,2.50
2019-02-25T03:59:17.873Z,2.50
2019-02-25T04:01:48.238Z,2.50
2019-02-25T04:04:18.581Z,2.50
2019-02-25T04:06:48.933Z,2.50
2019-02-25T04:09:19.270Z,2.50
2019-02-25T04:11:49.576Z,2.40
2019-02-25T04:14:20.674Z,2.40
2019-02-25T04:16:50.980Z,2.50
2019-02-25T04:19:21.319Z,2.40
2019-02-25T04:21:52.242Z,2.40
2019-02-25T04:24:22.590Z,2.40
2019-02-25T04:26:55.498Z,2.50
2019-02-25T04:29:25.251Z,2.40
2019-02-25T04:31:55.589Z,2.40
2019-02-25T04:34:25.895Z,2.40
2019-02-25T04:36:56.241Z,2.30
2019-02-25T04:39:26.584Z,2.40
2019-02-25T04:41:56.922Z,2.40
2019-02-25T04:44:28.325Z,2.30
2019-02-25T04:46:58.623Z,2.30
2019-02-25T04:49:28.985Z,2.30
2019-02-25T04:51:59.313Z,2.20
2019-02-25T04:54:29.706Z,2.20
2019-02-25T04:57:00.014Z,2.20
2019-02-25T04:59:30.345Z,2.20
2019-02-25T05:02:02.315Z,2.20
2019-02-25T05:04:32.578Z,2.20
2019-02-25T05:07:02.944Z,2.20
2019-02-25T05:09:33.242Z,2.20
2019-02-25T05:12:03.591Z,2.20
2019-02-25T05:14:33.922Z,2.20
2019-02-25T05:17:04.258Z,2.20
2019-02-25T05:19:34.593Z,2.20
2019-02-25T05:22:04.968Z,2.20
2019-02-25T05:24:35.269Z,2.20
2019-02-25T05:27:05.645Z,2.10
2019-02-25T05:29:35.940Z,2.10
2019-02-25T05:32:06.329Z,2.10
2019-02-25T05:34:37.133Z,2.10
2019-02-25T05:37:07.445Z,2.10
2019-02-25T05:39:37.800Z,2.10
2019-02-25T05:42:08.141Z,2.10
2019-02-25T05:44:38.608Z,2.10
2019-02-25T05:47:08.891Z,2.10
2019-02-25T05:49:39.250Z,2.10
2019-02-25T05:52:09.554Z,2.10
2019-02-25T05:54:39.930Z,2.20
2019-02-25T05:57:10.405Z,2.20
2019-02-25T05:59:40.802Z,2.30
2019-02-25T06:02:11.125Z,2.30
2019-02-25T06:04:41.498Z,2.30
2019-02-25T06:07:11.835Z,2.40
2019-02-25T06:09:42.565Z,2.50
2019-02-25T06:12:12.996Z,2.50
2019-02-25T06:14:44.819Z,2.50
2019-02-25T06:17:15.561Z,2.60
2019-02-25T06:19:45.879Z,2.60
2019-02-25T06:22:16.231Z,2.60
2019-02-25T06:24:46.576Z,2.70
2019-02-25T06:27:16.936Z,2.70
2019-02-25T06:29:47.273Z,2.80
2019-02-25T06:32:17.661Z,2.80
2019-02-25T06:34:48.056Z,2.90
2019-02-25T06:37:18.757Z,2.90
2019-02-25T06:39:49.190Z,3.00
2019-02-25T06:42:19.561Z,3.10
2019-02-25T06:44:50.890Z,3.20
2019-02-25T06:47:21.385Z,3.30
2019-02-25T06:49:51.757Z,3.30
2019-02-25T06:52:22.113Z,3.40
2019-02-25T06:54:52.654Z,3.50
2019-02-25T06:57:23.021Z,3.60
2019-02-25T06:59:54.018Z,3.70
2019-02-25T07:02:24.405Z,3.80
2019-02-25T07:05:16.745Z,3.90
2019-02-25T07:08:14.933Z,3.90
2019-02-25T07:11:22.653Z,4.00
2019-02-25T07:14:01.775Z,4.20
2019-02-25T07:16:52.238Z,4.20
2019-02-25T07:19:45.570Z,4.30
2019-02-25T07:22:45.711Z,4.40
2019-02-25T07:25:26.103Z,4.40
2019-02-25T07:28:18.025Z,4.60
2019-02-25T07:30:56.865Z,4.60
2019-02-25T07:33:38.467Z,4.80
2019-02-25T07:36:33.461Z,4.90
2019-02-25T07:39:21.929Z,5.00
2019-02-25T07:42:20.586Z,5.00
2019-02-25T07:44:57.143Z,5.20
2019-02-25T07:47:41.295Z,5.30
2019-02-25T07:50:33.491Z,5.40
2019-02-25T07:53:17.700Z,5.60
2019-02-25T07:56:02.589Z,5.70
2019-02-25T07:58:58.923Z,5.90
2019-02-25T08:01:41.813Z,5.90
2019-02-25T08:04:25.337Z,6.00
2019-02-25T08:07:20.273Z,6.10
2019-02-25T08:10:09.529Z,6.30
2019-02-25T08:12:55.735Z,6.40
2019-02-25T08:15:34.539Z,6.60
2019-02-25T08:18:11.499Z,6.70
2019-02-25T08:21:18.952Z,6.70
2019-02-25T08:24:13.889Z,6.70
2019-02-25T08:27:05.994Z,6.80
2019-02-25T08:29:53.223Z,6.90
2019-02-25T08:32:42.060Z,7.00
2019-02-25T08:35:53.827Z,7.20
2019-02-25T08:38:32.377Z,7.30
2019-02-25T08:41:34.525Z,7.50
2019-02-25T08:44:29.837Z,7.70
2019-02-25T08:47:07.900Z,7.90
2019-02-25T08:49:49.925Z,8.10
2019-02-25T08:52:20.470Z,8.30
2019-02-25T08:54:50.829Z,9.00
2019-02-25T08:57:21.217Z,10.00
2019-02-25T08:59:51.729Z,11.00
2019-02-25T09:02:23.021Z,12.00
2019-02-25T09:04:53.351Z,13.20
2019-02-25T09:07:23.764Z,14.60
2019-02-25T09:09:54.149Z,15.90
2019-02-25T09:12:24.518Z,17.10
2019-02-25T09:14:54.853Z,18.10
2019-02-25T09:17:25.253Z,19.10
2019-02-25T09:19:55.599Z,19.80
2019-02-25T09:22:25.979Z,20.70
2019-02-25T09:24:56.333Z,21.40
2019-02-25T09:27:26.719Z,22.00
2019-02-25T09:29:57.079Z,22.50
2019-02-25T09:32:27.442Z,22.90
2019-02-25T09:34:57.797Z,23.30
2019-02-25T09:37:28.159Z,23.70
2019-02-25T09:39:58.537Z,24.10
2019-02-25T09:42:28.858Z,24.60
2019-02-25T09:44:59.249Z,24.80
2019-02-25T09:47:29.595Z,25.00
2019-02-25T09:49:59.933Z,25.30
2019-02-25T09:52:30.349Z,25.50
2019-02-25T09:55:00.705Z,25.70
2019-02-25T09:57:31.033Z,26.10
2019-02-25T10:00:01.409Z,26.40
2019-02-25T10:02:33.107Z,26.20
2019-02-25T10:05:03.478Z,26.20
2019-02-25T10:07:33.919Z,26.50
2019-02-25T10:10:04.503Z,26.60
2019-02-25T10:12:36.033Z,26.60
2019-02-25T10:15:07.207Z,26.50
2019-02-25T10:17:56.609Z,26.50
2019-02-25T10:20:28.327Z,26.20
2019-02-25T10:22:58.785Z,25.60
2019-02-25T10:25:29.141Z,25.50
2019-02-25T10:27:59.551Z,25.50
2019-02-25T10:30:29.925Z,25.50
2019-02-25T10:33:00.922Z,25.40
2019-02-25T10:35:32.329Z,25.10
2019-02-25T10:38:03.232Z,24.50
2019-02-25T10:40:33.674Z,23.60
2019-02-25T10:43:04.189Z,23.00
2019-02-25T10:45:35.239Z,22.70
2019-02-25T10:48:06.589Z,22.90
2019-02-25T10:50:38.603Z,22.80
2019-02-25T10:53:10.981Z,23.00
2019-02-25T10:55:47.289Z,23.00
2019-02-25T10:58:18.683Z,23.00
2019-02-25T11:00:49.070Z,23.10
2019-02-25T11:03:21.265Z,23.10
2019-02-25T11:05:52.165Z,23.10
2019-02-25T11:08:24.067Z,23.10
2019-02-25T11:11:01.538Z,23.10
2019-02-25T11:13:33.951Z,22.80
2019-02-25T11:16:04.339Z,22.80
2019-02-25T11:18:36.543Z,22.70
2019-02-25T11:21:08.997Z,22.50
2019-02-25T11:23:40.765Z,22.10
2019-02-25T11:26:11.185Z,21.80
2019-02-25T11:28:43.789Z,21.50
2019-02-25T11:31:17.581Z,21.20
2019-02-25T11:38:06.319Z,19.70
2019-02-25T11:40:38.354Z,18.90
2019-02-25T11:43:10.674Z,18.30
2019-02-25T11:45:41.754Z,17.70
2019-02-25T11:48:12.757Z,17.20
2019-02-25T11:50:44.773Z,16.80
2019-02-25T11:53:17.126Z,16.40
2019-02-25T11:55:49.072Z,16.10
2019-02-25T11:58:19.552Z,15.60
2019-02-25T12:00:49.910Z,15.10
2019-02-25T12:03:20.325Z,14.50
2019-02-25T12:05:52.525Z,13.90
2019-02-25T12:08:23.225Z,13.60
2019-02-25T12:10:54.125Z,13.60
2019-02-25T12:13:24.590Z,13.60
2019-02-25T12:15:54.908Z,13.60
2019-02-25T12:18:25.326Z,13.70
2019-02-25T12:20:55.733Z,13.60
2019-02-25T12:23:26.101Z,13.30
2019-02-25T12:25:56.501Z,13.20
2019-02-25T12:28:26.897Z,13.20
2019-02-25T12:30:57.257Z,13.20
2019-02-25T12:33:31.942Z,13.30
2019-02-25T12:36:02.410Z,13.30
2019-02-25T12:38:44.225Z,13.20
2019-02-25T12:41:15.589Z,13.20
2019-02-25T12:43:45.950Z,13.20
2019-02-25T12:46:16.312Z,13.30
2019-02-25T12:48:46.687Z,13.30
2019-02-25T12:51:17.127Z,13.30
2019-02-25T12:53:47.495Z,13.20
2019-02-25T12:56:17.945Z,13.20
2019-02-25T12:58:48.315Z,13.20
2019-02-25T13:01:18.717Z,13.20
2019-02-25T13:03:49.070Z,13.20
2019-02-25T13:06:19.457Z,13.10
2019-02-25T13:08:49.820Z,13.10
2019-02-25T13:11:20.201Z,12.90
2019-02-25T13:13:50.631Z,12.80
2019-02-25T13:16:21.038Z,12.80
2019-02-25T13:18:51.431Z,12.70
2019-02-25T13:21:21.821Z,12.70
2019-02-25T13:23:52.230Z,12.70
2019-02-25T13:26:22.743Z,12.70
2019-02-25T13:28:53.133Z,12.70
2019-02-25T13:31:23.825Z,12.70
2019-02-25T13:33:54.201Z,12.60
2019-02-25T13:36:24.582Z,12.60
2019-02-25T13:38:54.997Z,12.40
2019-02-25T13:41:25.342Z,12.30
2019-02-25T13:43:56.614Z,12.10
2019-02-25T13:46:26.971Z,12.10
2019-02-25T13:48:57.605Z,12.00
2019-02-25T13:51:28.098Z,11.90
2019-02-25T13:53:58.402Z,11.80
2019-02-25T13:56:29.253Z,11.80
2019-02-25T13:58:59.581Z,11.70
2019-02-25T14:01:30.363Z,11.60
2019-02-25T14:04:00.754Z,11.60
2019-02-25T14:06:31.182Z,11.40
2019-02-25T14:09:01.589Z,11.30
2019-02-25T14:11:33.632Z,11.30
2019-02-25T14:14:04.002Z,11.20
2019-02-25T14:16:34.406Z,11.10
2019-02-25T14:19:05.094Z,11.10
2019-02-25T14:21:36.455Z,11.00
2019-02-25T14:24:07.036Z,10.90
2019-02-25T14:26:39.067Z,10.90
2019-02-25T14:29:09.633Z,10.80
2019-02-25T14:31:40.118Z,10.80
2019-02-25T14:34:10.463Z,10.60
2019-02-25T14:36:40.831Z,10.50
2019-02-25T14:39:28.399Z,10.40
2019-02-25T14:41:59.249Z,10.20
2019-02-25T14:44:32.280Z,10.00
2019-02-25T14:47:03.417Z,9.90
2019-02-25T14:49:35.194Z,9.70
2019-02-25T14:52:06.488Z,9.50
2019-02-25T14:54:36.843Z,9.40
2019-02-25T14:57:07.521Z,9.30
2019-02-25T14:59:37.908Z,9.20
2019-02-25T15:02:09.288Z,9.00
2019-02-25T15:04:41.769Z,8.90
2019-02-25T15:07:13.533Z,8.80
2019-02-25T15:09:45.723Z,8.70
2019-02-25T15:12:17.986Z,8.60
2019-02-25T15:14:48.398Z,8.40
2019-02-25T15:17:18.791Z,8.30
2019-02-25T15:19:49.118Z,8.10
2019-02-25T15:22:19.566Z,7.90
2019-02-25T15:24:53.062Z,7.80
2019-02-25T15:27:23.823Z,7.80
2019-02-25T15:29:54.282Z,7.70
2019-02-25T15:32:24.706Z,7.50
2019-02-25T15:34:57.116Z,7.40
2019-02-25T15:37:27.150Z,7.30
2019-02-25T15:39:57.580Z,7.10
2019-02-25T15:42:29.982Z,7.00
2019-02-25T15:45:00.163Z,6.80
2019-02-25T15:47:30.544Z,6.70
2019-02-25T15:50:03.731Z,6.60
2019-02-25T15:52:39.881Z,6.50
2019-02-25T15:55:08.103Z,6.40
2019-02-25T15:57:40.129Z,6.40
2019-02-25T16:00:14.492Z,6.30
2019-02-25T16:02:44.843Z,6.20
2019-02-25T16:05:15.871Z,6.10
2019-02-25T16:07:49.747Z,6.00
2019-02-25T16:10:20.500Z,5.80
2019-02-25T16:12:51.262Z,5.80
2019-02-25T16:15:22.960Z,5.70
2019-02-25T16:17:53.411Z,5.70
2019-02-25T16:20:23.900Z,5.60
2019-02-25T16:22:56.276Z,5.60
2019-02-25T16:25:27.538Z,5.60
2019-02-25T16:27:59.161Z,5.50
2019-02-25T16:30:30.782Z,5.50
2019-02-25T16:33:02.921Z,5.40
2019-02-25T16:35:34.844Z,5.40
2019-02-25T16:38:07.345Z,5.40
2019-02-25T16:40:39.803Z,5.40
2019-02-25T16:43:12.542Z,5.30
2019-02-25T16:45:44.012Z,5.30
2019-02-25T16:48:13.961Z,5.20
2019-02-25T16:50:46.312Z,5.20
2019-02-25T16:53:18.307Z,5.10
2019-02-25T16:55:49.218Z,5.10
2019-02-25T16:58:21.845Z,5.00
2019-02-25T17:00:52.202Z,5.10
2019-02-25T17:03:24.127Z,5.10
2019-02-25T17:05:54.483Z,5.00
2019-02-25T17:08:26.139Z,5.00
2019-02-25T17:10:57.838Z,5.00
2019-02-25T17:13:30.922Z,5.00
2019-02-25T17:16:02.728Z,5.00
2019-02-25T17:18:34.008Z,4.90
2019-02-25T17:21:05.120Z,4.90
2019-02-25T17:23:38.271Z,4.80
2019-02-25T17:26:10.050Z,4.80
2019-02-25T17:28:40.379Z,4.70
2019-02-25T17:31:11.527Z,4.70
2019-02-25T17:33:42.629Z,4.70
2019-02-25T17:36:14.682Z,4.70
2019-02-25T17:38:45.851Z,4.70
2019-02-25T17:41:17.123Z,4.60
2019-02-25T17:43:47.478Z,4.60
2019-02-25T17:46:19.341Z,4.60
2019-02-25T17:48:50.789Z,4.50
2019-02-25T17:51:22.650Z,4.60
2019-02-25T17:53:54.818Z,4.50
2019-02-25T17:56:26.677Z,4.50
2019-02-25T17:58:59.336Z,4.50
2019-02-25T18:01:30.199Z,4.50
2019-02-25T18:04:03.971Z,4.40
2019-02-25T18:06:36.199Z,4.40
2019-02-25T18:09:08.923Z,4.40
2019-02-25T18:11:41.234Z,4.40
2019-02-25T18:14:13.322Z,4.40
2019-02-25T18:16:48.178Z,4.50
2019-02-25T18:19:18.094Z,4.40
2019-02-25T18:21:47.888Z,4.40
2019-02-25T18:24:18.290Z,4.50
2019-02-25T18:26:48.624Z,4.50
2019-02-25T18:29:20.785Z,4.50
2019-02-25T18:31:51.498Z,4.50
2019-02-25T18:34:21.847Z,4.50
2019-02-25T18:36:53.741Z,4.60
2019-02-25T18:39:25.266Z,4.60
2019-02-25T18:42:15.974Z,4.60
2019-02-25T18:44:49.007Z,4.50
2019-02-25T18:47:20.741Z,4.50
2019-02-25T18:49:52.098Z,4.50
2019-02-25T18:52:23.575Z,4.60
2019-02-25T18:54:53.987Z,4.60
2019-02-25T18:57:25.232Z,4.60
2019-02-25T18:59:59.275Z,4.60
2019-02-25T19:02:30.050Z,4.60
2019-02-25T19:05:02.698Z,4.60
2019-02-25T19:07:34.052Z,4.60
2019-02-25T19:10:04.577Z,4.60
2019-02-25T19:12:35.229Z,4.60
2019-02-25T19:15:07.074Z,4.70
2019-02-25T19:17:37.810Z,4.70
2019-02-25T19:20:08.262Z,4.70
2019-02-25T19:22:41.807Z,4.70
2019-02-25T19:25:15.810Z,4.60
2019-02-25T19:27:45.669Z,4.60
2019-02-25T19:30:19.507Z,4.70
2019-02-25T19:32:49.080Z,4.70
2019-02-25T19:35:21.680Z,4.70
2019-02-25T19:37:51.406Z,4.70
2019-02-25T19:40:23.911Z,4.70
2019-02-25T19:42:56.758Z,4.70
2019-02-25T19:45:26.337Z,4.70
2019-02-25T19:47:58.367Z,4.70
2019-02-25T19:50:29.909Z,4.70
2019-02-25T19:53:04.658Z,4.70
2019-02-25T19:55:33.918Z,4.70
2019-02-25T19:58:04.924Z,4.70
2019-02-25T20:00:36.053Z,4.70
2019-02-25T20:03:06.564Z,4.70
2019-02-25T20:05:41.108Z,4.70
2019-02-25T20:08:08.849Z,4.70
2019-02-25T20:10:39.221Z,4.70
2019-02-25T20:13:09.564Z,4.70
2019-02-25T20:15:41.845Z,4.60
2019-02-25T20:18:13.749Z,4.70
2019-02-25T20:20:43.910Z,4.70
2019-02-25T20:23:14.213Z,4.70
2019-02-25T20:25:46.709Z,4.70
2019-02-25T20:28:18.660Z,4.70
2019-02-25T20:30:49.424Z,4.80
2019-02-25T20:33:23.610Z,4.70
2019-02-25T20:35:53.576Z,4.80
2019-02-25T20:38:27.184Z,4.80
2019-02-25T20:41:00.099Z,4.70
2019-02-25T20:43:32.383Z,4.70
2019-02-25T20:46:04.071Z,4.70
2019-02-25T20:48:34.643Z,4.70
2019-02-25T20:51:07.208Z,4.70
2019-02-25T20:53:37.844Z,4.70
2019-02-25T20:56:09.805Z,4.70
2019-02-25T20:58:42.057Z,4.70
2019-02-25T21:01:13.697Z,4.70
2019-02-25T21:03:46.045Z,4.80
2019-02-25T21:06:17.259Z,4.80
2019-02-25T21:08:48.677Z,4.70
2019-02-25T21:11:19.012Z,4.70
2019-02-25T21:13:49.409Z,4.70
2019-02-25T21:16:20.145Z,4.70
2019-02-25T21:18:51.274Z,4.70
2019-02-25T21:21:22.527Z,4.70
2019-02-25T21:23:52.879Z,4.70
2019-02-25T21:26:25.402Z,4.70
2019-02-25T21:28:57.920Z,4.60
2019-02-25T21:31:27.739Z,4.60
2019-02-25T21:33:58.790Z,4.60
2019-02-25T21:36:31.625Z,4.60
2019-02-25T21:39:02.018Z,4.70
2019-02-25T21:41:34.938Z,4.60
2019-02-25T21:44:06.325Z,4.60
2019-02-25T21:46:36.685Z,4.60
2019-02-25T21:49:08.380Z,4.60
2019-02-25T21:51:39.930Z,4.60
2019-02-25T21:54:10.929Z,4.50
2019-02-25T21:56:41.619Z,4.50
2019-02-25T21:59:12.822Z,4.50
2019-02-25T22:01:45.326Z,4.50
2019-02-25T22:04:20.340Z,4.50
2019-02-25T22:06:53.034Z,4.50
2019-02-25T22:09:36.397Z,4.50
2019-02-25T22:11:55.138Z,4.50
2019-02-25T22:14:26.433Z,4.50
2019-02-25T22:16:58.752Z,4.40
2019-02-25T22:19:28.799Z,4.40
2019-02-25T22:22:00.413Z,4.40
2019-02-25T22:24:33.487Z,4.40
2019-02-25T22:27:03.753Z,4.40
2019-02-25T22:29:36.448Z,4.40
2019-02-25T22:32:08.733Z,4.40
2019-02-25T22:34:39.811Z,4.40
2019-02-25T22:37:12.418Z,4.30
2019-02-25T22:39:43.819Z,4.20
2019-02-25T22:42:14.301Z,4.30
2019-02-25T22:44:45.162Z,4.30
2019-02-25T22:47:18.411Z,4.20
2019-02-25T22:49:48.593Z,4.30
2019-02-25T22:52:22.302Z,4.30
2019-02-25T22:54:52.278Z,4.20
2019-02-25T22:57:23.633Z,4.30
2019-02-25T22:59:54.707Z,4.30
2019-02-25T23:02:27.876Z,4.30
2019-02-25T23:04:57.080Z,4.30
2019-02-25T23:07:27.602Z,4.20
2019-02-25T23:09:57.945Z,4.20
2019-02-25T23:12:29.451Z,4.20
2019-02-25T23:15:01.023Z,4.20
2019-02-25T23:17:37.130Z,4.30
2019-02-25T23:20:09.373Z,4.20
2019-02-25T23:22:40.945Z,4.20
2019-02-25T23:25:11.353Z,4.10
2019-02-25T23:27:41.714Z,4.10
2019-02-25T23:30:12.137Z,4.10
2019-02-25T23:32:43.416Z,4.10
2019-02-25T23:35:15.909Z,4.10
2019-02-25T23:37:49.079Z,4.00
2019-02-25T23:40:17.751Z,4.00
2019-02-25T23:42:49.109Z,3.90
2019-02-25T23:45:21.259Z,3.90
2019-02-25T23:47:55.363Z,3.90
2019-02-25T23:50:25.735Z,3.80
2019-02-25T23:52:55.481Z,3.80
2019-02-25T23:55:27.938Z,3.80
2019-02-25T23:57:58.223Z,3.70
